Fairmont, WV

10:42 PM EST on January 25, 2015 (GMT -0500)
Morgantown Municipal-Hart | Change Station
CLOSE
Current Station
Airport
Location: Morgantown,
Elevation: 1247 ft
Nearby Weather Stations
Active Advisory: Winter Weather Advisory Active Notice: Public Information Statement

Elev 1247 ft 39.64 °N, 79.92 °W | Updated 26 minutes ago

Fog
Fog
34 °F
Feels Like 29 °F
N
6
Wind Variable Wind from North

Today
High -- | Low -- °F
--% Chance of Precip.
Yesterday
High -- | Low -- °F
Precip. -- in
7:33 AM 5:32 PM
Waxing Crescent, 38% visible
Pressure 29.74 in
Visibility 1.5 miles
Clouds Mostly Cloudy 200 ft
Overcast 6000 ft
Windchill 29 °F
Dew Point 31 °F
Humidity 89%
Rainfall 0.03 in
Snow Depth Not available.
UV 0 out of 12
Pollen .10 out of 12
Air Quality Not available.
Flu Activity Not available.
SPECI KMGW 260316Z 36005KT 1 1/2SM BR BKN002 OVC060 01/M01 A2974 RMK AO2 T00111006

More Conditions Fewer Conditions

Pressure 29.74 in
Visibility 1.5 miles
Clouds Mostly Cloudy 200 ft
Overcast 6000 ft
Windchill 29 °F
Dew Point 31 °F
Humidity 89%
Rainfall 0.03 in
Snow Depth Not available.
UV 0 out of 12
Pollen .10 out of 12
Air Quality Not available.
Flu Activity Not available.
SPECI KMGW 260316Z 36005KT 1 1/2SM BR BKN002 OVC060 01/M01 A2974 RMK AO2 T00111006

More Conditions Fewer Conditions

10-Day Weather Forecast

Almanac

Astronomy

Jan. 25, 2015 Rise Set
Actual Time
Civil Twilight
Nautical Twilight
Astronomical Twilight
Moon
Length of Visible Light
Length of Day
Tomorrow will be .
, % of the Moon is Illuminated

Today's Extremes

State Highs State Lows

Community

WunderPhotos

Upload Photos

1,790,106 photos uploaded!

WunderBlogs® & News

Nearby

Air Quality

  Air Quality AQ Index Pollutant
Not available.

Snow Depth

Station Depth Elevation

Earthquake Activity

City Distance Mag. Time & Date
Minimum magnitude displayed is 2.5.

Coastal Water Temperatures

Place Temperature

Nearby Weather Stations